Time;durP1;ratioP1;P1;durP2;ratioP2;P2;SDS_P1;SDS_P2;PMS_P1;PMS_P2;Temp;Humidity;BMP_temperature;BMP_pressure;BME280_temperature;BME280_humidity;BME280_pressure;Samples;Min_cycle;Max_cycle;Signal;HPM_P1;HPM_P2
2023/09/08 00:02:16;;;;;;;0.00;0.00;;;17.90;55.00;;;;;;5071724;28;20187;-58
2023/09/08 00:04:47;;;;;;;0.00;0.00;;;18.00;55.00;;;;;;5071839;28;20198;-58
2023/09/08 00:07:19;;;;;;;0.10;0.10;;;18.00;55.10;;;;;;5072807;28;20199;-57
2023/09/08 00:09:50;;;;;;;0.00;0.00;;;18.00;55.10;;;;;;5071694;28;20229;-58
2023/09/08 00:12:21;;;;;;;0.00;0.00;;;18.00;55.00;;;;;;5072495;28;20195;-54
2023/09/08 00:14:51;;;;;;;0.10;0.10;;;18.10;55.00;;;;;;5072336;28;20661;-57
2023/09/08 00:17:22;;;;;;;0.10;0.10;;;18.10;55.00;;;;;;5071851;28;20218;-58
2023/09/08 00:19:52;;;;;;;0.00;0.00;;;18.20;54.90;;;;;;5071430;28;20198;-58
2023/09/08 00:22:25;;;;;;;0.08;0.08;;;18.20;55.00;;;;;;5071945;28;20199;-57
2023/09/08 00:24:55;;;;;;;0.10;0.10;;;18.20;54.90;;;;;;5072113;28;20206;-56
2023/09/08 00:27:26;;;;;;;0.00;0.00;;;18.20;54.90;;;;;;5071835;28;20225;-58
2023/09/08 00:29:57;;;;;;;0.10;0.10;;;18.30;55.00;;;;;;5071339;28;20218;-56
2023/09/08 00:32:27;;;;;;;0.10;0.10;;;18.30;55.10;;;;;;5071318;28;20244;-57
2023/09/08 00:34:58;;;;;;;0.10;0.10;;;18.30;55.10;;;;;;5071318;28;20202;-58
2023/09/08 00:37:31;;;;;;;0.00;0.00;;;18.30;55.10;;;;;;5072345;28;20231;-59
2023/09/08 00:40:01;;;;;;;0.10;0.10;;;18.30;55.10;;;;;;5071994;28;20207;-59
2023/09/08 00:42:32;;;;;;;0.00;0.00;;;18.40;55.20;;;;;;5071308;28;20210;-59
2023/09/08 00:45:03;;;;;;;0.03;0.03;;;18.40;55.20;;;;;;5071858;28;20681;-56
2023/09/08 00:47:33;;;;;;;0.10;0.10;;;18.40;55.10;;;;;;5071246;28;20593;-58
2023/09/08 00:50:05;;;;;;;0.00;0.00;;;18.40;55.20;;;;;;5071319;28;20560;-59
2023/09/08 00:52:37;;;;;;;0.05;0.05;;;18.50;55.10;;;;;;5071500;28;20194;-57
2023/09/08 00:55:09;;;;;;;0.00;0.00;;;18.50;55.10;;;;;;5071356;28;20197;-59
2023/09/08 00:57:39;;;;;;;0.10;0.10;;;18.50;55.10;;;;;;5071268;28;20219;-58
2023/09/08 01:00:11;;;;;;;0.10;0.10;;;18.60;55.20;;;;;;5071433;28;20194;-58
2023/09/08 01:02:43;;;;;;;0.03;0.03;;;18.60;55.10;;;;;;5070982;28;20199;-59
2023/09/08 01:05:14;;;;;;;0.03;0.03;;;18.60;55.10;;;;;;5071120;28;20221;-58
2023/09/08 01:07:48;;;;;;;0.00;0.00;;;18.60;55.20;;;;;;5070902;28;20222;-58
2023/09/08 01:10:19;;;;;;;0.00;0.00;;;18.70;55.30;;;;;;5070741;28;20279;-60
2023/09/08 01:12:50;;;;;;;0.10;0.10;;;18.70;55.20;;;;;;5071745;28;20194;-60
2023/09/08 01:15:20;;;;;;;0.00;0.00;;;18.70;55.30;;;;;;5071632;28;20206;-59
2023/09/08 01:17:52;;;;;;;0.00;0.00;;;18.70;55.30;;;;;;5071085;28;20215;-59
2023/09/08 01:20:25;;;;;;;0.10;0.10;;;18.80;55.30;;;;;;5070924;28;20279;-59
2023/09/08 01:23:13;;;;;;;0.10;0.10;;;18.80;55.20;;;;;;5070994;28;20202;-59
2023/09/08 01:25:51;;;;;;;0.00;0.00;;;18.80;55.20;;;;;;5071149;28;20195;-58
2023/09/08 01:28:24;;;;;;;0.10;0.10;;;18.80;55.30;;;;;;5070733;28;20222;-58
2023/09/08 01:30:56;;;;;;;0.05;0.05;;;18.80;55.20;;;;;;5070924;28;20227;-59
2023/09/08 01:33:27;;;;;;;0.10;0.10;;;18.80;55.30;;;;;;5071051;28;20198;-59
2023/09/08 01:35:58;;;;;;;0.08;0.08;;;18.90;55.30;;;;;;5071255;28;20199;-59
2023/09/08 01:38:28;;;;;;;0.00;0.00;;;18.90;55.30;;;;;;5071549;28;20219;-59
2023/09/08 01:41:01;;;;;;;0.00;0.00;;;18.90;55.30;;;;;;5071244;28;20206;-59
2023/09/08 01:43:32;;;;;;;0.10;0.10;;;19.00;55.40;;;;;;5070995;28;20236;-59
2023/09/08 01:46:03;;;;;;;0.00;0.00;;;19.00;55.30;;;;;;5071182;28;20205;-59
2023/09/08 01:48:33;;;;;;;0.00;0.00;;;19.00;55.20;;;;;;5070787;28;20215;-59
2023/09/08 01:51:04;;;;;;;0.00;0.00;;;19.00;55.20;;;;;;5070725;28;20218;-59
2023/09/08 01:53:34;;;;;;;0.00;0.00;;;19.10;55.30;;;;;;5071300;28;20194;-59
2023/09/08 01:56:07;;;;;;;0.00;0.00;;;19.10;55.30;;;;;;5074080;28;20203;-59
2023/09/08 01:58:38;;;;;;;0.05;0.05;;;19.10;55.30;;;;;;5071718;28;20697;-59
2023/09/08 02:01:08;;;;;;;0.00;0.00;;;19.10;55.30;;;;;;5074184;28;20449;-60
2023/09/08 02:03:39;;;;;;;0.00;0.00;;;19.10;55.20;;;;;;5073535;28;20194;-59
2023/09/08 02:06:09;;;;;;;0.00;0.00;;;19.20;55.20;;;;;;5073693;28;20206;-59
2023/09/08 02:08:40;;;;;;;0.10;0.10;;;19.20;55.20;;;;;;5074025;28;20690;-58
2023/09/08 02:11:13;;;;;;;0.00;0.00;;;19.20;55.20;;;;;;5074559;28;20230;-58
2023/09/08 02:13:45;;;;;;;0.08;0.08;;;19.20;55.10;;;;;;5073781;28;20195;-58
2023/09/08 02:16:18;;;;;;;0.00;0.00;;;19.30;55.10;;;;;;5073575;28;20205;-59
2023/09/08 02:18:49;;;;;;;0.00;0.00;;;19.30;55.10;;;;;;5073157;28;20215;-59
2023/09/08 02:21:19;;;;;;;0.10;0.10;;;19.30;55.10;;;;;;5073929;28;20601;-59
2023/09/08 02:23:50;;;;;;;0.00;0.00;;;19.30;55.00;;;;;;5072945;28;20206;-59
2023/09/08 02:26:22;;;;;;;0.10;0.10;;;19.40;55.00;;;;;;5072964;28;20187;-58
2023/09/08 02:28:53;;;;;;;0.08;0.08;;;19.40;55.10;;;;;;5073066;28;20222;-59
2023/09/08 02:31:24;;;;;;;0.00;0.00;;;19.40;55.00;;;;;;5074117;28;20190;-59
2023/09/08 02:33:54;;;;;;;0.00;0.00;;;19.40;55.00;;;;;;5073943;28;20203;-59
2023/09/08 02:36:27;;;;;;;0.00;0.00;;;19.40;55.00;;;;;;5073162;28;20665;-58
2023/09/08 02:38:58;;;;;;;0.10;0.10;;;19.50;55.00;;;;;;5073796;28;20267;-59
2023/09/08 02:41:30;;;;;;;0.03;0.03;;;19.50;55.00;;;;;;5072717;28;20646;-56
2023/09/08 02:44:01;;;;;;;0.10;0.10;;;19.50;55.00;;;;;;5074344;28;20582;-59
2023/09/08 02:46:31;;;;;;;0.10;0.10;;;19.60;55.00;;;;;;5072776;28;20207;-59
2023/09/08 02:49:02;;;;;;;0.00;0.00;;;19.60;55.00;;;;;;5073091;28;20214;-59
2023/09/08 02:51:33;;;;;;;0.00;0.00;;;19.60;55.10;;;;;;5073195;28;20895;-58
2023/09/08 02:54:04;;;;;;;0.00;0.00;;;19.60;55.10;;;;;;5072806;28;20201;-59
2023/09/08 02:56:36;;;;;;;0.00;0.00;;;19.60;55.10;;;;;;5071919;28;20195;-58
2023/09/08 02:59:07;;;;;;;0.00;0.00;;;19.60;55.10;;;;;;5072278;28;20686;-57
2023/09/08 03:01:38;;;;;;;0.00;0.00;;;19.70;55.10;;;;;;5073328;28;20202;-58
2023/09/08 03:04:08;;;;;;;0.00;0.00;;;19.70;55.10;;;;;;5073275;28;20279;-59
2023/09/08 03:06:39;;;;;;;0.10;0.10;;;19.80;55.80;;;;;;5072739;28;20190;-59
2023/09/08 03:09:10;;;;;;;0.10;0.10;;;19.80;55.20;;;;;;5071811;28;20214;-58
2023/09/08 03:11:42;;;;;;;0.00;0.00;;;19.80;55.10;;;;;;5072509;28;20194;-59
2023/09/08 03:14:13;;;;;;;0.08;0.08;;;19.90;55.10;;;;;;5072732;28;20191;-59
2023/09/08 03:16:43;;;;;;;0.03;0.03;;;19.90;55.10;;;;;;5073220;28;20187;-59
2023/09/08 03:19:14;;;;;;;0.03;0.03;;;19.90;55.10;;;;;;5072492;28;20218;-58
2023/09/08 03:21:45;;;;;;;0.00;0.00;;;19.90;55.00;;;;;;5072744;28;20234;-59
2023/09/08 03:24:15;;;;;;;0.00;0.00;;;20.00;55.00;;;;;;5072811;28;20673;-59
2023/09/08 03:26:48;;;;;;;0.10;0.10;;;20.00;55.00;;;;;;5072323;28;20635;-59
2023/09/08 03:29:18;;;;;;;0.00;0.00;;;20.00;55.00;;;;;;5072739;28;20694;-58
2023/09/08 03:31:49;;;;;;;0.00;0.00;;;20.00;55.00;;;;;;5072294;28;20190;-59
2023/09/08 03:34:20;;;;;;;0.10;0.10;;;20.00;54.90;;;;;;5072079;28;20206;-59
2023/09/08 03:36:52;;;;;;;0.00;0.00;;;20.10;55.00;;;;;;5072296;28;20194;-58
2023/09/08 03:39:22;;;;;;;0.00;0.00;;;20.10;54.90;;;;;;5072587;28;20233;-57
2023/09/08 03:41:55;;;;;;;0.00;0.00;;;20.10;54.80;;;;;;5071757;28;20198;-59
2023/09/08 03:44:25;;;;;;;0.00;0.00;;;20.20;54.90;;;;;;5071756;28;20218;-59
2023/09/08 03:46:56;;;;;;;0.00;0.00;;;20.20;54.90;;;;;;5072111;28;20774;-59
2023/09/08 03:49:27;;;;;;;0.00;0.00;;;20.20;54.90;;;;;;5071885;28;20211;-58
2023/09/08 03:51:58;;;;;;;0.10;0.10;;;20.20;54.80;;;;;;5072544;28;20187;-58
2023/09/08 03:54:28;;;;;;;0.00;0.00;;;20.20;54.70;;;;;;5071711;28;20205;-59
2023/09/08 03:57:01;;;;;;;0.00;0.00;;;20.30;54.70;;;;;;5072239;28;20191;-59
2023/09/08 03:59:31;;;;;;;0.00;0.00;;;20.30;54.60;;;;;;5072239;28;20665;-58
2023/09/08 04:02:02;;;;;;;0.00;0.00;;;20.30;54.60;;;;;;5072372;28;20187;-59
2023/09/08 04:04:33;;;;;;;0.00;0.00;;;20.30;54.60;;;;;;5071917;28;20237;-59
2023/09/08 04:07:03;;;;;;;0.00;0.00;;;20.30;54.60;;;;;;5071735;28;20191;-58
2023/09/08 04:09:34;;;;;;;0.10;0.10;;;20.40;54.60;;;;;;5070894;28;20225;-59
2023/09/08 04:12:09;;;;;;;0.00;0.00;;;20.40;54.60;;;;;;5071512;28;20206;-59
2023/09/08 04:14:39;;;;;;;0.10;0.10;;;20.30;54.50;;;;;;5071407;28;20255;-58
2023/09/08 04:17:10;;;;;;;0.05;0.05;;;20.40;54.40;;;;;;5070470;28;20194;-58
2023/09/08 04:19:41;;;;;;;0.03;0.03;;;20.40;54.40;;;;;;5071170;28;20658;-59
2023/09/08 04:22:11;;;;;;;0.00;0.00;;;20.40;54.30;;;;;;5071044;28;20202;-58
2023/09/08 04:24:42;;;;;;;0.00;0.00;;;20.50;54.30;;;;;;5070974;28;20198;-57
2023/09/08 04:27:14;;;;;;;0.08;0.08;;;20.50;54.30;;;;;;5068966;28;20195;-58
2023/09/08 04:29:45;;;;;;;0.00;0.00;;;20.50;54.20;;;;;;5071468;28;20205;-58
2023/09/08 04:32:16;;;;;;;0.10;0.10;;;20.50;54.70;;;;;;5071080;28;20191;-55
2023/09/08 04:34:46;;;;;;;0.00;0.00;;;20.50;54.10;;;;;;5071709;28;20207;-54
2023/09/08 04:39:54;;;;;;;0.10;0.10;;;20.60;54.10;;;;;;5069708;28;20206;-46
2023/09/08 04:42:26;;;;;;;0.00;0.00;;;20.60;54.10;;;;;;5071735;28;20191;-46
2023/09/08 04:44:57;;;;;;;0.10;0.10;;;20.60;54.00;;;;;;5071034;28;20191;-45
2023/09/08 04:47:28;;;;;;;0.10;0.10;;;20.60;54.00;;;;;;5071704;28;20187;-47
2023/09/08 04:49:58;;;;;;;0.03;0.03;;;20.60;53.90;;;;;;5055761;28;20225;-50
2023/09/08 04:52:29;;;;;;;0.00;0.00;;;20.60;53.90;;;;;;5051302;28;20198;-50
2023/09/08 04:55:00;;;;;;;0.00;0.00;;;20.60;53.90;;;;;;5050764;28;20202;-45
2023/09/08 04:57:32;;;;;;;0.10;0.10;;;20.70;54.00;;;;;;5051083;28;20196;-46
2023/09/08 05:00:03;;;;;;;0.00;0.00;;;20.70;54.00;;;;;;5051484;28;20214;-47
2023/09/08 05:02:33;;;;;;;0.00;0.00;;;20.70;53.80;;;;;;5049157;28;20211;-47
2023/09/08 05:05:04;;;;;;;0.00;0.00;;;20.70;53.80;;;;;;5048957;28;20203;-47
2023/09/08 05:07:35;;;;;;;0.10;0.10;;;20.70;54.40;;;;;;5042458;28;20192;-47
2023/09/08 05:10:05;;;;;;;0.00;0.00;;;20.70;53.80;;;;;;5049228;28;20234;-47
2023/09/08 05:12:38;;;;;;;0.10;0.10;;;20.70;53.80;;;;;;5049490;28;20195;-46
2023/09/08 05:15:14;;;;;;;0.00;0.00;;;20.70;53.70;;;;;;5049387;28;20199;-46
2023/09/08 05:17:45;;;;;;;0.10;0.10;;;20.70;53.70;;;;;;5049608;28;20272;-46
2023/09/08 05:20:16;;;;;;;0.10;0.10;;;20.70;53.60;;;;;;5049395;28;20222;-47
2023/09/08 05:22:47;;;;;;;0.10;0.10;;;20.70;53.50;;;;;;5049398;28;20671;-46
2023/09/08 05:25:17;;;;;;;0.10;0.10;;;20.70;53.40;;;;;;5049216;28;20199;-47
2023/09/08 05:27:50;;;;;;;0.10;0.10;;;20.70;53.30;;;;;;5049342;28;20211;-47
2023/09/08 05:30:21;;;;;;;0.10;0.10;;;20.70;53.20;;;;;;5053420;28;20277;-46
2023/09/08 05:32:52;;;;;;;0.00;0.00;;;20.70;53.20;;;;;;5052837;28;20633;-46
2023/09/08 05:35:22;;;;;;;0.00;0.00;;;20.70;53.10;;;;;;5053034;28;20683;-46
2023/09/08 05:37:53;;;;;;;0.00;0.00;;;20.70;53.10;;;;;;5053678;28;20223;-47
2023/09/08 05:40:24;;;;;;;0.10;0.10;;;20.70;53.10;;;;;;5053298;28;20203;-47
2023/09/08 05:42:56;;;;;;;0.10;0.10;;;20.70;53.10;;;;;;5053741;28;20197;-47
2023/09/08 05:45:27;;;;;;;0.10;0.10;;;20.70;53.10;;;;;;5053040;28;20214;-47
2023/09/08 05:47:57;;;;;;;0.10;0.10;;;20.70;53.10;;;;;;5053458;28;20210;-47
2023/09/08 05:50:28;;;;;;;0.00;0.00;;;20.70;53.00;;;;;;5053054;28;20694;-46
2023/09/08 05:52:59;;;;;;;0.10;0.10;;;20.70;53.00;;;;;;5053391;28;20195;-46
2023/09/08 05:55:29;;;;;;;0.05;0.05;;;20.70;53.00;;;;;;5052975;28;20659;-46
2023/09/08 05:58:02;;;;;;;0.10;0.10;;;20.70;53.00;;;;;;5053524;28;20215;-47
2023/09/08 06:00:33;;;;;;;0.10;0.10;;;20.60;52.90;;;;;;5045576;28;20196;-46
2023/09/08 06:03:03;;;;;;;0.00;0.00;;;20.60;52.90;;;;;;5053007;28;20191;-47
2023/09/08 06:05:34;;;;;;;0.00;0.00;;;20.60;52.90;;;;;;5044599;28;20196;-46
2023/09/08 06:08:04;;;;;;;0.10;0.10;;;20.60;53.20;;;;;;5050208;28;20212;-45
2023/09/08 06:10:35;;;;;;;0.10;0.10;;;20.60;52.90;;;;;;5045401;28;20223;-46
2023/09/08 06:13:08;;;;;;;0.10;0.10;;;20.50;52.90;;;;;;5052071;28;20677;-46
2023/09/08 06:15:39;;;;;;;0.10;0.10;;;20.50;52.90;;;;;;5052296;28;20206;-46
2023/09/08 06:18:09;;;;;;;0.10;0.10;;;20.50;52.90;;;;;;5052259;28;20215;-46
2023/09/08 06:20:45;;;;;;;0.10;0.10;;;20.50;52.90;;;;;;5052254;28;20203;-47
2023/09/08 06:23:16;;;;;;;0.10;0.10;;;20.50;53.00;;;;;;5052493;28;20650;-46
2023/09/08 06:25:47;;;;;;;0.10;0.10;;;20.50;53.00;;;;;;5052675;28;20666;-47
2023/09/08 06:28:19;;;;;;;0.10;0.10;;;20.50;52.90;;;;;;5052117;28;20219;-47
2023/09/08 06:30:50;;;;;;;0.00;0.00;;;20.40;52.90;;;;;;5052738;28;20219;-47
2023/09/08 06:33:20;;;;;;;0.03;0.03;;;20.50;53.00;;;;;;5051509;28;20195;-48
2023/09/08 06:35:51;;;;;;;0.10;0.10;;;20.40;52.90;;;;;;5052112;28;20682;-46
2023/09/08 06:38:23;;;;;;;0.10;0.10;;;20.40;52.90;;;;;;5051869;28;20232;-46
2023/09/08 06:40:54;;;;;;;0.00;0.00;;;20.40;52.90;;;;;;5051685;28;20644;-46
2023/09/08 06:43:27;;;;;;;0.00;0.00;;;20.40;52.90;;;;;;5051642;28;20243;-46
2023/09/08 06:45:57;;;;;;;0.10;0.10;;;20.40;53.00;;;;;;5052209;28;20199;-46
2023/09/08 06:48:28;;;;;;;0.10;0.10;;;20.30;52.90;;;;;;5051709;28;20227;-46
2023/09/08 06:50:59;;;;;;;0.10;0.10;;;20.30;52.90;;;;;;5052304;28;20219;-48
2023/09/08 06:53:30;;;;;;;0.03;0.03;;;20.30;52.90;;;;;;5051805;28;20564;-45
2023/09/08 06:56:01;;;;;;;0.00;0.00;;;20.30;52.90;;;;;;5051701;28;20195;-46
2023/09/08 06:58:33;;;;;;;0.10;0.10;;;20.30;53.00;;;;;;5051645;28;20230;-45
2023/09/08 07:01:04;;;;;;;0.10;0.10;;;20.30;53.00;;;;;;5049658;28;20196;-47
2023/09/08 07:03:36;;;;;;;0.03;0.03;;;20.30;53.00;;;;;;5051779;28;20219;-47
2023/09/08 07:06:07;;;;;;;0.00;0.00;;;20.20;53.00;;;;;;5051394;28;20196;-46
2023/09/08 07:08:38;;;;;;;0.05;0.05;;;20.20;52.90;;;;;;5051708;28;20230;-46
2023/09/08 07:11:08;;;;;;;0.03;0.03;;;20.20;52.90;;;;;;5051268;28;20230;-45
2023/09/08 07:13:41;;;;;;;0.10;0.10;;;20.20;52.90;;;;;;5052135;28;20548;-46
2023/09/08 07:16:11;;;;;;;0.10;0.10;;;20.20;52.90;;;;;;5051351;28;20200;-45
2023/09/08 07:18:42;;;;;;;0.00;0.00;;;20.20;52.90;;;;;;5051727;28;20799;-46
2023/09/08 07:21:13;;;;;;;0.00;0.00;;;20.10;52.80;;;;;;5050699;28;20670;-46
2023/09/08 07:23:43;;;;;;;0.05;0.05;;;20.10;52.80;;;;;;5051179;28;20203;-47
2023/09/08 07:26:14;;;;;;;0.00;0.00;;;20.10;52.80;;;;;;5051064;28;20210;-45
2023/09/08 07:28:46;;;;;;;0.00;0.00;;;20.10;52.80;;;;;;5051003;28;20231;-47
2023/09/08 07:31:17;;;;;;;0.00;0.00;;;20.00;52.80;;;;;;5050727;28;20234;-46
2023/09/08 07:33:48;;;;;;;0.10;0.10;;;20.00;52.80;;;;;;5050684;28;20206;-46
2023/09/08 07:36:18;;;;;;;0.08;0.08;;;20.00;52.80;;;;;;5053722;28;20603;-45
2023/09/08 07:38:49;;;;;;;0.00;0.00;;;20.00;52.80;;;;;;5073230;28;20226;-45
2023/09/08 07:41:19;;;;;;;0.00;0.00;;;19.90;52.80;;;;;;5072596;28;20228;-45
2023/09/08 07:43:52;;;;;;;0.00;0.00;;;19.90;52.80;;;;;;5071622;28;20198;-45
2023/09/08 07:46:23;;;;;;;0.10;0.10;;;19.90;52.80;;;;;;5072496;28;20653;-46
2023/09/08 07:48:54;;;;;;;0.00;0.00;;;19.90;52.80;;;;;;5072808;28;20574;-46
2023/09/08 07:51:24;;;;;;;0.00;0.00;;;19.90;52.80;;;;;;5072159;28;20690;-45
2023/09/08 07:53:55;;;;;;;0.00;0.00;;;19.80;52.80;;;;;;5071747;28;20203;-46
2023/09/08 07:56:26;;;;;;;0.00;0.00;;;19.80;52.80;;;;;;5072274;28;20251;-46
2023/09/08 07:58:58;;;;;;;0.00;0.00;;;19.80;52.80;;;;;;5071934;28;20211;-46
2023/09/08 08:01:29;;;;;;;0.10;0.10;;;19.80;52.80;;;;;;5072210;28;20365;-46
2023/09/08 08:04:00;;;;;;;0.10;0.10;;;19.70;52.70;;;;;;5066694;28;20490;-47
2023/09/08 08:06:31;;;;;;;0.00;0.00;;;19.70;52.80;;;;;;5051323;28;20242;-46
2023/09/08 08:09:02;;;;;;;0.00;0.00;;;19.70;52.80;;;;;;5050747;28;20211;-46
2023/09/08 08:11:33;;;;;;;0.00;0.00;;;19.70;52.80;;;;;;5042319;28;20223;-46
2023/09/08 08:14:05;;;;;;;0.10;0.10;;;19.70;52.80;;;;;;5049170;28;20196;-47
2023/09/08 08:16:36;;;;;;;0.10;0.10;;;19.70;52.80;;;;;;5052061;28;20572;-47
2023/09/08 08:19:07;;;;;;;0.00;0.00;;;19.60;52.80;;;;;;5050845;28;20212;-47
2023/09/08 08:21:37;;;;;;;0.00;0.00;;;19.60;52.90;;;;;;5051235;28;20192;-46
2023/09/08 08:24:08;;;;;;;0.00;0.00;;;19.60;52.90;;;;;;5050641;28;20192;-48
2023/09/08 08:26:39;;;;;;;0.00;0.00;;;19.60;52.90;;;;;;5050641;28;20199;-46
2023/09/08 08:29:11;;;;;;;0.10;0.10;;;19.60;52.90;;;;;;5051429;28;20207;-46
2023/09/08 08:31:42;;;;;;;0.03;0.03;;;19.60;52.90;;;;;;5050685;28;20223;-46
2023/09/08 08:34:13;;;;;;;0.00;0.00;;;19.60;52.90;;;;;;5050695;28;20195;-47
2023/09/08 08:36:43;;;;;;;0.10;0.10;;;19.50;52.90;;;;;;5051190;28;20191;-46
2023/09/08 08:39:17;;;;;;;0.05;0.05;;;19.50;52.80;;;;;;5075480;22;20234;-56
2023/09/08 08:41:47;;;;;;;0.00;0.00;;;19.50;52.90;;;;;;5071134;28;20194;-57
2023/09/08 08:44:21;;;;;;;0.08;0.08;;;19.50;52.90;;;;;;5069629;28;20199;-55
2023/09/08 08:46:52;;;;;;;0.00;0.00;;;19.50;52.90;;;;;;5070695;28;20203;-55
2023/09/08 08:49:24;;;;;;;0.00;0.00;;;19.40;52.80;;;;;;5062121;28;20230;-56
2023/09/08 08:51:55;;;;;;;0.00;0.00;;;19.40;52.80;;;;;;5050803;28;20226;-57
2023/09/08 08:54:26;;;;;;;0.00;0.00;;;19.40;52.80;;;;;;5051032;28;20196;-54
2023/09/08 08:56:57;;;;;;;0.10;0.10;;;19.40;52.90;;;;;;5055472;28;20226;-57
2023/09/08 08:59:31;;;;;;;0.08;0.08;;;19.40;52.90;;;;;;5050018;28;20691;-56
2023/09/08 09:02:02;;;;;;;0.10;0.10;;;19.30;53.50;;;;;;5050563;28;20226;-57
2023/09/08 09:04:33;;;;;;;0.00;0.00;;;19.30;52.90;;;;;;5049901;28;20196;-55
2023/09/08 09:07:04;;;;;;;0.00;0.00;;;19.30;52.90;;;;;;5050369;28;20545;-58
2023/09/08 09:09:35;;;;;;;0.10;0.10;;;19.30;53.50;;;;;;5050519;28;20353;-57
2023/09/08 09:12:06;;;;;;;0.03;0.03;;;19.30;52.90;;;;;;5031822;28;20231;-58
2023/09/08 09:14:38;;;;;;;0.10;0.10;;;19.30;52.90;;;;;;5049221;28;20199;-54
2023/09/08 09:17:15;;;;;;;0.10;0.10;;;19.20;52.90;;;;;;5050523;28;20651;-56
2023/09/08 09:19:46;;;;;;;0.00;0.00;;;19.20;52.90;;;;;;5049496;28;20686;-53
2023/09/08 09:22:16;;;;;;;0.10;0.10;;;19.20;52.80;;;;;;5049980;28;20202;-57
2023/09/08 09:24:47;;;;;;;0.00;0.00;;;19.20;52.80;;;;;;5050960;28;20195;-57
2023/09/08 09:27:18;;;;;;;0.10;0.10;;;19.20;52.90;;;;;;5050169;28;20192;-56
2023/09/08 09:29:51;;;;;;;0.00;0.00;;;19.10;52.80;;;;;;5049965;28;20226;-57
2023/09/08 09:32:29;;;;;;;0.00;0.00;;;19.10;52.80;;;;;;5050300;28;20219;-55
2023/09/08 09:35:02;;;;;;;0.10;0.10;;;19.10;52.80;;;;;;5050097;28;20188;-57
2023/09/08 09:37:37;;;;;;;0.00;0.00;;;19.10;52.80;;;;;;5050378;28;20225;-55
2023/09/08 09:40:10;;;;;;;0.10;0.10;;;19.00;52.80;;;;;;5049912;28;20203;-52
2023/09/08 09:42:42;;;;;;;0.00;0.00;;;19.00;52.80;;;;;;5050252;28;20199;-58
2023/09/08 09:45:15;;;;;;;0.10;0.10;;;19.10;52.90;;;;;;5050254;28;20606;-58
2023/09/08 09:47:47;;;;;;;0.10;0.10;;;19.00;52.80;;;;;;5049977;28;20238;-59
2023/09/08 09:50:28;;;;;;;0.10;0.10;;;19.00;52.80;;;;;;5049222;28;20651;-57
2023/09/08 09:53:01;;;;;;;0.10;0.10;;;19.00;52.80;;;;;;5049796;28;20223;-58
2023/09/08 09:55:32;;;;;;;0.10;0.10;;;18.90;52.80;;;;;;5049789;28;20714;-55
2023/09/08 09:58:03;;;;;;;0.10;0.10;;;18.90;52.80;;;;;;5050096;28;20218;-57
2023/09/08 10:00:37;;;;;;;0.10;0.10;;;18.90;52.80;;;;;;5049379;28;20237;-58
2023/09/08 10:03:08;;;;;;;0.00;0.00;;;18.80;53.40;;;;;;5049867;28;20308;-57
2023/09/08 10:05:40;;;;;;;0.10;0.10;;;18.80;52.80;;;;;;5044400;28;20708;-59
2023/09/08 10:08:11;;;;;;;0.00;0.00;;;18.90;52.80;;;;;;5047801;28;20277;-54
2023/09/08 10:10:45;;;;;;;0.10;0.10;;;18.80;52.80;;;;;;5042026;28;20199;-56
2023/09/08 10:13:20;;;;;;;0.10;0.10;;;18.80;52.80;;;;;;5056239;28;20623;-54
2023/09/08 10:15:54;;;;;;;0.10;0.10;;;18.80;52.80;;;;;;5049673;28;20227;-54
2023/09/08 10:18:26;;;;;;;0.10;0.10;;;18.70;53.40;;;;;;5050254;28;20218;-56
2023/09/08 10:21:00;;;;;;;0.10;0.10;;;18.70;52.80;;;;;;5051353;28;20195;-54
2023/09/08 10:23:35;;;;;;;0.08;0.08;;;18.70;52.90;;;;;;5051726;28;20207;-53
2023/09/08 10:26:08;;;;;;;0.10;0.10;;;18.70;52.80;;;;;;5051811;28;20187;-56
2023/09/08 10:28:40;;;;;;;0.00;0.00;;;18.70;52.80;;;;;;5043422;28;20253;-57
2023/09/08 10:31:13;;;;;;;0.03;0.03;;;18.60;52.80;;;;;;5055268;28;20195;-53
2023/09/08 10:33:45;;;;;;;0.00;0.00;;;18.60;52.80;;;;;;5048426;28;20231;-55
2023/09/08 10:36:17;;;;;;;0.00;0.00;;;18.60;52.80;;;;;;5049355;28;20648;-54
2023/09/08 10:38:49;;;;;;;0.03;0.03;;;18.60;52.80;;;;;;5051203;28;20568;-51
2023/09/08 10:41:32;;;;;;;0.00;0.00;;;18.60;52.80;;;;;;5051185;28;20207;-55
2023/09/08 10:44:09;;;;;;;0.00;0.00;;;18.50;52.80;;;;;;5050796;28;20511;-52
2023/09/08 10:46:41;;;;;;;0.10;0.10;;;18.50;52.80;;;;;;5051243;28;20203;-52
2023/09/08 10:49:12;;;;;;;0.00;0.00;;;18.50;52.80;;;;;;5050863;28;20229;-56
2023/09/08 10:51:44;;;;;;;0.00;0.00;;;18.50;52.80;;;;;;5050539;28;20734;-54
2023/09/08 10:54:35;;;;;;;0.00;0.00;;;18.50;52.80;;;;;;5051466;28;20290;-49
2023/09/08 10:57:15;;;;;;;0.05;0.05;;;18.40;52.80;;;;;;5052950;28;20674;-56
2023/09/08 10:59:53;;;;;;;0.05;0.05;;;18.40;52.80;;;;;;5052601;28;20222;-53
2023/09/08 11:02:41;;;;;;;0.10;0.10;;;18.40;52.80;;;;;;5053033;28;20249;-58
2023/09/08 11:05:13;;;;;;;0.10;0.10;;;18.30;52.90;;;;;;5062335;28;20266;-53
2023/09/08 11:07:44;;;;;;;0.10;0.10;;;18.40;52.90;;;;;;5053421;28;20901;-57
2023/09/08 11:10:15;;;;;;;0.10;0.10;;;18.30;52.90;;;;;;5053315;28;20195;-59
2023/09/08 11:12:46;;;;;;;0.00;0.00;;;18.30;52.90;;;;;;5053352;28;20265;-59
2023/09/08 11:15:17;;;;;;;0.00;0.00;;;18.30;52.90;;;;;;5052645;28;20210;-55
2023/09/08 11:17:50;;;;;;;0.10;0.10;;;18.20;52.90;;;;;;5053474;28;20198;-56
2023/09/08 11:20:29;;;;;;;0.10;0.10;;;18.20;52.90;;;;;;5052481;28;20274;-59
2023/09/08 11:23:00;;;;;;;0.10;0.10;;;18.20;52.80;;;;;;5052358;28;20187;-56
2023/09/08 11:25:31;;;;;;;0.10;0.10;;;18.20;52.90;;;;;;5053144;28;20202;-50
2023/09/08 11:28:02;;;;;;;0.08;0.08;;;18.20;52.90;;;;;;5052946;28;20299;-54
2023/09/08 11:30:33;;;;;;;0.00;0.00;;;18.20;52.90;;;;;;5053351;28;20187;-58
2023/09/08 11:33:05;;;;;;;0.10;0.10;;;18.20;52.90;;;;;;5053196;28;20284;-57
2023/09/08 11:35:37;;;;;;;0.10;0.10;;;18.20;52.90;;;;;;5052542;28;20199;-57
2023/09/08 11:38:08;;;;;;;0.10;0.10;;;18.10;52.90;;;;;;5052763;28;20227;-58
2023/09/08 11:40:39;;;;;;;0.08;0.08;;;18.10;52.90;;;;;;5053065;28;20192;-56
2023/09/08 11:43:09;;;;;;;0.10;0.10;;;18.10;52.90;;;;;;5053122;28;20206;-56
2023/09/08 11:45:40;;;;;;;0.00;0.00;;;18.10;52.90;;;;;;5053169;28;20281;-57
2023/09/08 11:48:13;;;;;;;0.00;0.00;;;18.00;52.90;;;;;;5053264;28;20223;-59
2023/09/08 11:50:45;;;;;;;0.03;0.03;;;18.00;52.90;;;;;;5052512;28;20203;-52
2023/09/08 11:53:21;;;;;;;0.10;0.10;;;18.00;52.90;;;;;;5052157;28;20766;-58
2023/09/08 11:55:52;;;;;;;0.08;0.08;;;18.00;52.90;;;;;;5050595;28;20241;-52
2023/09/08 11:58:24;;;;;;;0.10;0.10;;;18.00;52.90;;;;;;5052207;28;20211;-53
2023/09/08 12:00:55;;;;;;;0.10;0.10;;;17.90;52.90;;;;;;5052338;28;20443;-56
2023/09/08 12:03:27;;;;;;;0.00;0.00;;;17.90;52.90;;;;;;5049184;28;20190;-57
2023/09/08 12:05:58;;;;;;;0.10;0.10;;;17.90;52.90;;;;;;5051888;28;20196;-55
2023/09/08 12:08:29;;;;;;;0.00;0.00;;;17.90;52.90;;;;;;5049073;28;20219;-59
2023/09/08 12:11:00;;;;;;;0.10;0.10;;;17.80;52.90;;;;;;5054842;28;20211;-59
2023/09/08 12:13:30;;;;;;;0.10;0.10;;;17.80;52.90;;;;;;5049958;28;20590;-51
2023/09/08 12:16:01;;;;;;;0.10;0.10;;;17.80;52.90;;;;;;5052384;28;20192;-57
2023/09/08 12:18:45;;;;;;;0.10;0.10;;;17.80;52.90;;;;;;5051382;28;20203;-56
2023/09/08 12:21:16;;;;;;;0.10;0.10;;;17.80;52.90;;;;;;5050294;28;20192;-55
2023/09/08 12:23:53;;;;;;;0.00;0.00;;;17.80;52.90;;;;;;5053735;28;20188;-56
2023/09/08 12:26:26;;;;;;;0.10;0.10;;;17.70;52.90;;;;;;5051737;28;20202;-55
2023/09/08 12:28:57;;;;;;;0.10;0.10;;;17.80;52.90;;;;;;5051671;28;20207;-57
2023/09/08 12:31:28;;;;;;;0.10;0.10;;;17.70;52.90;;;;;;5052342;28;20249;-51
2023/09/08 12:34:00;;;;;;;0.00;0.00;;;17.70;52.90;;;;;;5051836;28;20631;-49
2023/09/08 12:36:31;;;;;;;0.10;0.10;;;17.70;52.90;;;;;;5052245;28;20677;-51
2023/09/08 12:39:01;;;;;;;0.10;0.10;;;17.70;52.90;;;;;;5051740;28;20223;-57
2023/09/08 12:41:32;;;;;;;0.10;0.10;;;17.70;52.90;;;;;;5051851;28;20647;-52
2023/09/08 12:44:03;;;;;;;0.05;0.05;;;17.60;52.90;;;;;;5051720;28;20200;-55
2023/09/08 12:46:35;;;;;;;0.10;0.10;;;17.60;52.90;;;;;;5051687;28;20218;-58
2023/09/08 12:49:07;;;;;;;0.10;0.10;;;17.60;52.90;;;;;;5051862;28;20215;-52
2023/09/08 12:51:38;;;;;;;0.00;0.00;;;17.60;52.90;;;;;;5052914;28;20199;-53
2023/09/08 12:54:09;;;;;;;0.08;0.08;;;17.60;52.90;;;;;;5051875;28;20222;-56
2023/09/08 12:56:39;;;;;;;0.00;0.00;;;17.60;52.90;;;;;;5058036;28;20206;-50
2023/09/08 12:59:10;;;;;;;0.10;0.10;;;17.50;52.90;;;;;;5072098;28;20211;-59
2023/09/08 13:01:41;;;;;;;0.10;0.10;;;17.50;52.90;;;;;;5071752;28;20256;-54
2023/09/08 13:04:13;;;;;;;0.10;0.10;;;17.50;52.90;;;;;;5070234;28;20662;-57
2023/09/08 13:06:44;;;;;;;0.08;0.08;;;17.50;52.90;;;;;;5051083;28;20612;-56
2023/09/08 13:09:15;;;;;;;0.08;0.08;;;17.50;52.90;;;;;;5051303;28;20215;-51
2023/09/08 13:11:45;;;;;;;0.10;0.10;;;17.50;52.90;;;;;;5051083;28;20187;-48
2023/09/08 13:14:16;;;;;;;0.10;0.10;;;17.40;52.90;;;;;;5054376;28;20608;-48